Time;durP1;ratioP1;P1;durP2;ratioP2;P2;SDS_P1;SDS_P2;PMS_P1;PMS_P2;Temp;Humidity;BMP_temperature;BMP_pressure;BME280_temperature;BME280_humidity;BME280_pressure;Samples;Min_cycle;Max_cycle;Signal;HPM_P1;HPM_P2
2023/06/15 00:00:54;;;;;;;0.13;0.13;;;16.10;99.90;;;;;;5100751;28;20228;-74
2023/06/15 00:03:21;;;;;;;0.10;0.10;;;16.10;99.90;;;;;;5100488;28;20023;-75
2023/06/15 00:05:46;;;;;;;0.10;0.10;;;16.10;99.90;;;;;;5100635;28;20011;-75
2023/06/15 00:08:12;;;;;;;0.20;0.20;;;16.10;99.90;;;;;;5100761;28;20034;-75
2023/06/15 00:10:38;;;;;;;0.10;0.10;;;16.10;99.90;;;;;;5100618;28;20024;-76
2023/06/15 00:13:04;;;;;;;0.20;0.20;;;16.20;99.90;;;;;;5100355;28;20028;-83
2023/06/15 00:15:30;;;;;;;0.10;0.10;;;16.20;99.90;;;;;;5100393;28;20019;-75
2023/06/15 00:17:56;;;;;;;2.08;1.27;;;16.20;99.90;;;;;;5081849;28;20437;-74
2023/06/15 00:20:28;;;;;;;0.20;0.20;;;16.10;99.90;;;;;;5100737;28;20028;-75
2023/06/15 00:22:55;;;;;;;0.20;0.20;;;16.10;99.90;;;;;;5101200;28;20027;-80
2023/06/15 00:25:22;;;;;;;0.20;0.20;;;16.10;99.90;;;;;;5100819;28;20019;-75
2023/06/15 00:27:48;;;;;;;0.10;0.10;;;16.10;99.90;;;;;;5102030;28;20027;-74
2023/06/15 00:30:15;;;;;;;0.20;0.20;;;16.10;99.90;;;;;;5085073;28;20028;-74
2023/06/15 00:32:41;;;;;;;0.20;0.20;;;16.10;99.90;;;;;;5085563;28;20068;-75
2023/06/15 00:35:08;;;;;;;0.20;0.20;;;16.10;99.90;;;;;;5084048;28;20443;-74
2023/06/15 00:37:34;;;;;;;0.20;0.20;;;16.10;99.90;;;;;;5100263;28;20093;-81
2023/06/15 00:40:00;;;;;;;0.10;0.10;;;16.10;99.90;;;;;;5099800;28;20722;-78
2023/06/15 00:42:29;;;;;;;0.20;0.20;;;16.10;99.90;;;;;;5100191;28;20067;-81
2023/06/15 00:44:55;;;;;;;0.10;0.10;;;16.10;99.90;;;;;;5101306;28;20085;-81
2023/06/15 00:47:21;;;;;;;0.20;0.20;;;16.10;99.90;;;;;;5099298;28;20027;-74
2023/06/15 00:49:48;;;;;;;0.20;0.20;;;16.10;99.90;;;;;;5082753;28;20031;-75
2023/06/15 00:52:16;;;;;;;0.20;0.20;;;17.50;99.90;;;;;;5100535;28;20024;-74
2023/06/15 00:54:43;;;;;;;0.20;0.20;;;16.10;99.90;;;;;;5101813;28;20112;-76
2023/06/15 00:57:10;;;;;;;0.10;0.10;;;16.10;99.90;;;;;;5102348;28;20316;-80
2023/06/15 00:59:37;;;;;;;0.20;0.20;;;16.10;99.90;;;;;;5102798;28;20012;-74
2023/06/15 01:02:03;;;;;;;0.57;0.57;;;16.10;99.90;;;;;;5102688;28;20300;-74
2023/06/15 01:04:29;;;;;;;0.10;0.10;;;16.10;99.90;;;;;;5103050;28;20383;-75
2023/06/15 01:07:04;;;;;;;3.83;3.58;;;16.10;99.90;;;;;;5102050;28;20073;-74
2023/06/15 01:09:35;;;;;;;4.05;3.78;;;16.20;99.90;;;;;;5100669;28;20023;-79
2023/06/15 01:12:05;;;;;;;5.78;5.47;;;16.20;99.90;;;;;;5099372;28;20081;-76
2023/06/15 01:14:32;;;;;;;5.57;5.28;;;16.10;99.90;;;;;;5099358;28;20018;-75
2023/06/15 01:17:02;;;;;;;1.13;1.08;;;16.20;99.90;;;;;;5098918;28;20020;-74
2023/06/15 01:19:31;;;;;;;0.20;0.20;;;16.20;99.90;;;;;;5099551;28;20024;-79
2023/06/15 01:22:19;;;;;;;0.40;0.40;;;16.20;99.90;;;;;;5100384;28;20024;-76
2023/06/15 01:24:51;;;;;;;0.60;0.60;;;16.20;99.90;;;;;;5100997;28;20098;-74
2023/06/15 01:27:21;;;;;;;0.20;0.20;;;16.20;99.90;;;;;;5099798;28;20028;-74
2023/06/15 01:29:52;;;;;;;0.10;0.10;;;16.30;99.90;;;;;;5099779;28;20034;-77
2023/06/15 01:32:19;;;;;;;0.20;0.20;;;16.30;99.90;;;;;;5098819;28;20047;-79
2023/06/15 01:34:44;;;;;;;0.20;0.20;;;16.30;99.90;;;;;;5099260;28;20802;-74
2023/06/15 01:37:10;;;;;;;0.20;0.20;;;16.30;99.90;;;;;;5099078;28;20506;-78
2023/06/15 01:39:36;;;;;;;0.35;0.35;;;16.30;99.90;;;;;;5099125;28;20030;-75
2023/06/15 01:42:02;;;;;;;0.13;0.13;;;16.60;99.90;;;;;;5098817;28;20559;-81
2023/06/15 01:44:29;;;;;;;0.20;0.20;;;16.30;99.90;;;;;;5100965;28;20308;-78
2023/06/15 01:46:54;;;;;;;0.20;0.20;;;16.30;99.90;;;;;;5082379;28;20122;-76
2023/06/15 01:49:20;;;;;;;0.20;0.20;;;16.30;99.90;;;;;;5083174;28;20542;-75
2023/06/15 01:51:46;;;;;;;0.10;0.10;;;16.40;99.90;;;;;;5101144;28;20448;-75
2023/06/15 01:54:12;;;;;;;0.20;0.20;;;16.30;99.90;;;;;;5100787;28;20043;-75
2023/06/15 01:56:39;;;;;;;0.45;0.45;;;16.30;99.90;;;;;;5081561;28;20545;-74
2023/06/15 01:59:04;;;;;;;0.20;0.20;;;16.30;99.90;;;;;;5098977;28;20485;-78
2023/06/15 02:01:30;;;;;;;0.50;0.50;;;16.40;99.90;;;;;;5099718;28;20024;-82
2023/06/15 02:03:56;;;;;;;0.40;0.40;;;16.40;99.90;;;;;;5100275;28;20022;-79
2023/06/15 02:06:22;;;;;;;0.20;0.20;;;16.40;99.90;;;;;;5100202;28;20011;-85
2023/06/15 02:08:47;;;;;;;0.20;0.20;;;16.40;99.90;;;;;;5098912;28;20224;-77
2023/06/15 02:11:15;;;;;;;0.10;0.10;;;16.30;99.90;;;;;;5098939;28;20086;-76
2023/06/15 02:13:41;;;;;;;0.30;0.30;;;16.30;99.90;;;;;;5099752;28;20023;-77
2023/06/15 02:16:07;;;;;;;0.77;0.77;;;16.40;99.90;;;;;;5098532;28;20023;-76
2023/06/15 02:18:33;;;;;;;0.10;0.10;;;16.40;99.90;;;;;;5099095;28;20051;-75
2023/06/15 02:20:59;;;;;;;0.10;0.10;;;16.30;99.90;;;;;;5099541;28;20544;-77
2023/06/15 02:23:25;;;;;;;0.10;0.10;;;16.40;99.90;;;;;;5098640;28;20030;-76
2023/06/15 02:25:51;;;;;;;0.10;0.10;;;16.40;99.90;;;;;;5098296;28;20015;-76
2023/06/15 02:28:16;;;;;;;0.20;0.20;;;16.40;99.90;;;;;;5098381;28;20467;-79
2023/06/15 02:30:42;;;;;;;0.30;0.30;;;16.40;99.90;;;;;;5098353;28;20061;-76
2023/06/15 02:33:09;;;;;;;0.20;0.20;;;16.40;99.90;;;;;;5097923;28;20034;-76
2023/06/15 02:35:34;;;;;;;0.20;0.20;;;16.30;99.90;;;;;;5098354;28;20023;-75
2023/06/15 02:38:00;;;;;;;0.20;0.20;;;16.40;99.90;;;;;;5098161;28;20039;-75
2023/06/15 02:40:26;;;;;;;0.10;0.10;;;16.40;99.90;;;;;;5098484;28;20047;-74
2023/06/15 02:42:51;;;;;;;0.20;0.20;;;16.40;99.90;;;;;;5098155;28;20614;-79
2023/06/15 02:45:17;;;;;;;0.30;0.30;;;16.40;99.90;;;;;;5097836;28;20074;-74
2023/06/15 02:47:43;;;;;;;0.10;0.10;;;16.40;99.90;;;;;;5097996;28;20036;-75
2023/06/15 02:50:10;;;;;;;1.65;1.17;;;16.30;99.90;;;;;;5098103;28;20262;-76
2023/06/15 02:52:36;;;;;;;0.20;0.20;;;16.40;99.90;;;;;;5097623;28;20015;-76
2023/06/15 02:55:02;;;;;;;0.30;0.30;;;16.40;99.90;;;;;;5097605;28;20039;-74
2023/06/15 02:57:28;;;;;;;0.10;0.10;;;16.40;99.90;;;;;;5097628;28;20324;-78
2023/06/15 02:59:54;;;;;;;0.20;0.20;;;16.40;99.90;;;;;;5097817;28;20099;-77
2023/06/15 03:02:21;;;;;;;0.20;0.20;;;16.40;99.90;;;;;;5097754;28;20016;-76
2023/06/15 03:04:48;;;;;;;0.20;0.20;;;14.00;99.90;;;;;;5097727;28;20384;-75
2023/06/15 03:07:16;;;;;;;0.95;0.95;;;16.40;99.90;;;;;;5097878;28;20051;-76
2023/06/15 03:09:50;;;;;;;0.77;0.75;;;16.40;99.90;;;;;;5098033;28;20094;-74
2023/06/15 03:12:17;;;;;;;5.38;5.07;;;16.40;99.90;;;;;;5101543;28;20303;-77
2023/06/15 03:14:44;;;;;;;0.10;0.10;;;16.30;99.90;;;;;;5101620;28;20015;-78
2023/06/15 03:17:12;;;;;;;0.20;0.20;;;16.30;99.90;;;;;;5101309;28;20031;-81
2023/06/15 03:19:41;;;;;;;0.20;0.20;;;16.20;99.90;;;;;;5101741;28;20015;-75
2023/06/15 03:22:09;;;;;;;0.20;0.20;;;16.30;99.90;;;;;;5101659;28;20394;-76
2023/06/15 03:24:36;;;;;;;0.60;0.60;;;16.20;99.90;;;;;;5102548;28;20055;-74
2023/06/15 03:27:06;;;;;;;3.85;3.70;;;16.20;99.90;;;;;;5102208;28;20144;-77
2023/06/15 03:29:36;;;;;;;0.20;0.20;;;16.20;99.90;;;;;;5102586;28;20119;-75
2023/06/15 03:32:11;;;;;;;0.15;0.15;;;16.30;99.90;;;;;;5102396;28;20740;-75
2023/06/15 03:34:37;;;;;;;0.50;0.50;;;16.20;99.90;;;;;;5102682;28;20023;-77
2023/06/15 03:37:04;;;;;;;0.20;0.20;;;16.20;99.90;;;;;;5102571;28;20024;-75
2023/06/15 03:39:30;;;;;;;0.25;0.25;;;16.20;99.90;;;;;;5102708;28;20011;-74
2023/06/15 03:41:55;;;;;;;0.20;0.20;;;16.60;99.90;;;;;;5102726;28;20027;-75
2023/06/15 03:44:21;;;;;;;0.10;0.10;;;16.20;99.90;;;;;;5102786;28;20026;-74
2023/06/15 03:46:47;;;;;;;2.92;2.72;;;16.20;99.90;;;;;;5102595;28;20024;-76
2023/06/15 03:49:14;;;;;;;0.40;0.40;;;16.20;99.90;;;;;;5103061;28;20107;-78
2023/06/15 03:51:40;;;;;;;1.15;1.15;;;16.00;99.90;;;;;;5103425;28;20020;-80
2023/06/15 03:54:05;;;;;;;0.10;0.10;;;16.20;99.90;;;;;;5102750;28;20031;-77
2023/06/15 03:56:31;;;;;;;0.43;0.43;;;16.20;99.90;;;;;;5102553;28;20059;-76
2023/06/15 03:58:57;;;;;;;0.73;0.73;;;16.10;99.90;;;;;;5101543;28;20020;-76
2023/06/15 04:01:24;;;;;;;0.20;0.20;;;16.10;99.90;;;;;;5101747;28;20353;-75
2023/06/15 04:03:51;;;;;;;0.10;0.10;;;16.10;99.90;;;;;;5102901;28;20015;-74
2023/06/15 04:06:16;;;;;;;1.75;1.65;;;16.20;99.90;;;;;;5102041;28;20023;-76
2023/06/15 04:08:43;;;;;;;1.08;1.08;;;16.20;99.90;;;;;;5101569;28;20031;-76
2023/06/15 04:11:09;;;;;;;0.10;0.10;;;16.20;99.90;;;;;;5102608;28;20016;-77
2023/06/15 04:13:35;;;;;;;0.17;0.17;;;16.20;99.90;;;;;;5100715;28;20411;-78
2023/06/15 04:16:00;;;;;;;0.20;0.20;;;16.30;99.90;;;;;;5100011;28;20023;-74
2023/06/15 04:18:26;;;;;;;0.10;0.10;;;16.30;99.90;;;;;;5100496;28;20082;-73
2023/06/15 04:20:52;;;;;;;1.60;1.50;;;16.60;99.90;;;;;;5100592;28;20223;-88
2023/06/15 04:23:18;;;;;;;0.20;0.20;;;16.40;99.90;;;;;;5100021;28;20030;-76
2023/06/15 04:25:45;;;;;;;2.10;2.00;;;16.40;99.90;;;;;;5101579;28;20304;-75
2023/06/15 04:28:10;;;;;;;0.73;0.73;;;16.40;99.90;;;;;;5082639;28;20036;-75
2023/06/15 04:30:40;;;;;;;0.80;0.80;;;16.50;99.90;;;;;;5101152;28;20331;-77
2023/06/15 04:33:07;;;;;;;0.63;0.63;;;16.50;99.90;;;;;;5083399;28;20019;-76
2023/06/15 04:35:34;;;;;;;1.05;1.05;;;16.50;99.90;;;;;;5101160;28;20023;-79
2023/06/15 04:38:05;;;;;;;0.20;0.20;;;16.50;99.90;;;;;;5082583;28;20529;-79
2023/06/15 04:40:31;;;;;;;0.30;0.30;;;16.50;99.90;;;;;;5081390;28;20542;-74
2023/06/15 04:43:02;;;;;;;0.10;0.10;;;16.50;99.90;;;;;;5099931;28;20474;-79
2023/06/15 04:45:28;;;;;;;0.20;0.20;;;16.50;99.90;;;;;;5099796;28;20024;-75
2023/06/15 04:47:54;;;;;;;0.10;0.10;;;16.50;99.90;;;;;;5099876;28;20028;-74
2023/06/15 04:50:21;;;;;;;0.20;0.20;;;16.50;99.90;;;;;;5099515;28;20069;-75
2023/06/15 04:52:48;;;;;;;0.20;0.20;;;16.50;99.90;;;;;;5099581;28;20657;-75
2023/06/15 04:55:14;;;;;;;0.60;0.60;;;16.50;99.90;;;;;;5098840;28;20497;-80
2023/06/15 04:57:40;;;;;;;0.20;0.20;;;16.50;99.90;;;;;;5099317;28;20427;-77
2023/06/15 05:00:07;;;;;;;0.80;0.80;;;16.60;99.90;;;;;;5099481;28;20087;-75
2023/06/15 05:02:33;;;;;;;0.30;0.30;;;16.60;99.90;;;;;;5099315;28;20407;-76
2023/06/15 05:04:59;;;;;;;1.98;1.88;;;16.50;99.90;;;;;;5099180;28;20095;-75
2023/06/15 05:07:25;;;;;;;0.30;0.30;;;16.60;99.90;;;;;;5099080;28;20019;-75
2023/06/15 05:09:50;;;;;;;0.90;0.90;;;16.60;99.90;;;;;;5099156;28;20103;-75
2023/06/15 05:12:16;;;;;;;0.20;0.20;;;16.60;99.90;;;;;;5099004;28;20023;-76
2023/06/15 05:14:42;;;;;;;0.20;0.20;;;16.60;99.90;;;;;;5099052;28;20020;-78
2023/06/15 05:17:08;;;;;;;0.20;0.20;;;16.60;99.90;;;;;;5098709;28;20204;-79
2023/06/15 05:19:33;;;;;;;0.20;0.20;;;16.70;99.90;;;;;;5098789;28;20590;-75
2023/06/15 05:22:01;;;;;;;0.90;0.90;;;16.70;99.90;;;;;;5098605;28;20043;-78
2023/06/15 05:24:27;;;;;;;0.15;0.15;;;16.70;99.90;;;;;;5098997;28;20031;-75
2023/06/15 05:26:53;;;;;;;0.20;0.20;;;16.70;99.90;;;;;;5098489;28;20284;-75
2023/06/15 05:29:20;;;;;;;0.35;0.35;;;16.70;99.90;;;;;;5098954;28;20023;-75
2023/06/15 05:31:46;;;;;;;0.20;0.20;;;16.60;99.90;;;;;;5098320;28;20050;-75
2023/06/15 05:34:12;;;;;;;0.28;0.28;;;16.60;99.90;;;;;;5097838;28;20020;-75
2023/06/15 05:36:38;;;;;;;0.20;0.20;;;16.60;99.90;;;;;;5098832;28;20035;-78
2023/06/15 05:39:04;;;;;;;1.08;1.08;;;16.70;99.90;;;;;;5098841;28;20023;-76
2023/06/15 05:41:30;;;;;;;0.10;0.10;;;16.70;99.90;;;;;;5098630;28;20020;-76
2023/06/15 05:43:56;;;;;;;2.05;1.85;;;16.70;99.90;;;;;;5098729;28;20347;-75
2023/06/15 05:46:22;;;;;;;2.83;1.30;;;16.70;99.90;;;;;;5098300;28;20059;-75
2023/06/15 05:48:47;;;;;;;2.63;2.40;;;16.80;99.90;;;;;;5098625;28;20080;-75
2023/06/15 05:51:13;;;;;;;0.20;0.20;;;16.80;99.90;;;;;;5098532;28;20062;-74
2023/06/15 05:53:39;;;;;;;0.20;0.20;;;16.80;99.90;;;;;;5098693;28;20020;-80
2023/06/15 05:56:05;;;;;;;0.20;0.20;;;16.80;99.90;;;;;;5079786;28;20059;-75
2023/06/15 05:58:31;;;;;;;0.20;0.20;;;16.80;99.90;;;;;;5098480;28;20143;-75
2023/06/15 06:00:56;;;;;;;1.85;1.75;;;16.80;99.90;;;;;;5098191;28;20683;-80
2023/06/15 06:03:22;;;;;;;0.20;0.20;;;16.80;99.90;;;;;;5098700;28;20028;-75
2023/06/15 06:05:48;;;;;;;1.48;1.42;;;16.90;99.90;;;;;;5098939;28;20173;-82
2023/06/15 06:08:13;;;;;;;1.40;1.35;;;16.90;99.90;;;;;;5097960;28;20452;-85
2023/06/15 06:10:40;;;;;;;0.20;0.20;;;16.90;99.90;;;;;;5098213;28;20024;-78
2023/06/15 06:13:06;;;;;;;2.15;1.95;;;17.00;99.90;;;;;;5079956;28;20149;-79
2023/06/15 06:15:31;;;;;;;0.10;0.10;;;17.00;99.90;;;;;;5100178;28;20023;-77
2023/06/15 06:17:57;;;;;;;0.20;0.20;;;17.00;99.90;;;;;;5098269;28;20042;-85
2023/06/15 06:20:23;;;;;;;0.20;0.20;;;17.10;99.90;;;;;;5097742;28;20342;-75
2023/06/15 06:22:48;;;;;;;0.10;0.10;;;17.90;99.90;;;;;;5097962;28;20039;-77
2023/06/15 06:25:14;;;;;;;0.10;0.10;;;17.10;99.90;;;;;;5079228;28;20023;-75
2023/06/15 06:27:40;;;;;;;0.25;0.25;;;17.10;99.90;;;;;;5097757;28;20746;-75
2023/06/15 06:30:06;;;;;;;1.63;1.55;;;17.20;99.90;;;;;;5097814;28;20463;-76
2023/06/15 06:32:32;;;;;;;0.20;0.20;;;17.10;99.90;;;;;;5096981;28;20447;-75
2023/06/15 06:34:58;;;;;;;0.20;0.20;;;17.10;99.90;;;;;;5098348;28;20032;-76
2023/06/15 06:37:24;;;;;;;0.13;0.13;;;17.10;99.90;;;;;;5098665;28;20036;-76
2023/06/15 06:39:51;;;;;;;0.10;0.10;;;17.10;99.90;;;;;;5099748;28;20255;-77
2023/06/15 06:42:16;;;;;;;0.38;0.38;;;15.80;99.90;;;;;;5101156;28;20319;-79
2023/06/15 06:44:43;;;;;;;1.90;1.70;;;17.20;99.90;;;;;;5099405;28;20120;-81
2023/06/15 06:47:08;;;;;;;0.52;0.52;;;17.20;99.90;;;;;;5100878;28;20274;-76
2023/06/15 06:49:34;;;;;;;1.65;1.65;;;17.20;99.90;;;;;;5103653;28;20019;-75
2023/06/15 06:52:01;;;;;;;0.20;0.20;;;17.10;99.90;;;;;;5103411;28;20020;-79
2023/06/15 06:54:27;;;;;;;0.30;0.30;;;17.10;99.90;;;;;;5104228;28;20121;-75
2023/06/15 06:56:52;;;;;;;0.10;0.10;;;16.80;99.90;;;;;;5101998;28;20101;-80
2023/06/15 06:59:18;;;;;;;0.10;0.10;;;17.10;99.90;;;;;;5100764;28;20027;-76
2023/06/15 07:01:44;;;;;;;1.38;0.80;;;17.00;99.90;;;;;;5081762;28;20039;-74
2023/06/15 07:04:10;;;;;;;0.20;0.20;;;17.10;99.90;;;;;;5101076;28;20100;-80
2023/06/15 07:06:36;;;;;;;1.05;1.05;;;17.10;99.90;;;;;;5101080;28;20023;-78
2023/06/15 07:09:01;;;;;;;0.40;0.40;;;17.20;99.90;;;;;;5101181;28;20016;-75
2023/06/15 07:11:27;;;;;;;0.10;0.10;;;17.30;99.90;;;;;;5082167;28;20026;-75
2023/06/15 07:13:53;;;;;;;0.25;0.25;;;;;;;;;;5100819;28;20280;-77
2023/06/15 07:16:19;;;;;;;0.10;0.10;;;17.30;99.90;;;;;;5081711;28;20533;-84
2023/06/15 07:18:45;;;;;;;0.50;0.50;;;17.30;99.90;;;;;;5082001;28;20028;-76
2023/06/15 07:21:11;;;;;;;0.20;0.20;;;17.30;99.90;;;;;;5081569;28;20612;-75
2023/06/15 07:23:37;;;;;;;0.20;0.20;;;17.30;99.90;;;;;;5062908;28;20680;-77
2023/06/15 07:26:02;;;;;;;1.65;1.55;;;17.20;99.90;;;;;;5081859;28;20240;-76
2023/06/15 07:28:28;;;;;;;0.40;0.40;;;17.10;99.90;;;;;;5081535;28;20183;-78
2023/06/15 07:30:54;;;;;;;0.10;0.10;;;17.10;99.90;;;;;;5081491;28;20020;-82
2023/06/15 07:33:20;;;;;;;0.10;0.10;;;17.10;99.90;;;;;;5081067;28;20020;-84
2023/06/15 07:35:47;;;;;;;0.20;0.20;;;17.10;99.90;;;;;;5081484;28;20707;-84
2023/06/15 07:38:14;;;;;;;0.30;0.30;;;17.10;99.90;;;;;;5081124;28;20059;-83
2023/06/15 07:40:40;;;;;;;7.93;7.32;;;17.00;99.90;;;;;;5082018;28;20368;-76
2023/06/15 07:43:06;;;;;;;0.43;0.43;;;17.00;99.90;;;;;;5063965;28;20758;-85
2023/06/15 07:45:32;;;;;;;0.20;0.20;;;17.10;99.90;;;;;;5081564;28;20134;-75
2023/06/15 07:47:57;;;;;;;0.60;0.60;;;17.10;99.90;;;;;;5081550;28;20028;-77
2023/06/15 07:50:23;;;;;;;0.20;0.20;;;17.20;99.90;;;;;;5081735;28;20256;-79
2023/06/15 07:52:52;;;;;;;0.10;0.10;;;14.40;99.90;;;;;;5080891;28;20107;-76
2023/06/15 07:55:18;;;;;;;0.68;0.68;;;17.30;99.90;;;;;;5093275;28;20036;-81
2023/06/15 07:57:44;;;;;;;0.10;0.10;;;17.40;99.90;;;;;;5100381;28;20694;-82
2023/06/15 08:00:10;;;;;;;0.13;0.13;;;17.30;99.90;;;;;;5102336;28;20027;-79
2023/06/15 08:02:36;;;;;;;0.10;0.10;;;17.40;99.90;;;;;;5102994;28;20015;-77
2023/06/15 08:05:03;;;;;;;0.15;0.15;;;17.50;99.90;;;;;;5101824;28;20520;-81
2023/06/15 08:07:30;;;;;;;0.32;0.32;;;17.40;99.90;;;;;;5101605;28;20027;-88
2023/06/15 08:09:56;;;;;;;0.10;0.10;;;17.50;99.90;;;;;;5083478;28;20034;-87
2023/06/15 08:12:22;;;;;;;0.32;0.32;;;17.60;99.90;;;;;;5082954;28;20019;-74
2023/06/15 08:14:48;;;;;;;0.10;0.10;;;;;;;;;;5082855;28;20670;-78
2023/06/15 08:17:13;;;;;;;0.10;0.10;;;17.70;99.90;;;;;;5101100;28;20031;-84
2023/06/15 08:19:39;;;;;;;0.10;0.10;;;17.70;99.90;;;;;;5101668;28;20640;-81
2023/06/15 08:22:05;;;;;;;0.20;0.20;;;17.80;99.90;;;;;;5102163;28;20393;-87
2023/06/15 08:24:31;;;;;;;0.10;0.10;;;17.80;99.90;;;;;;5101615;28;20058;-78
2023/06/15 08:26:59;;;;;;;0.17;0.17;;;17.90;99.90;;;;;;5083420;28;20064;-77
2023/06/15 08:29:24;;;;;;;0.20;0.20;;;18.00;99.90;;;;;;5083591;28;20020;-87
2023/06/15 08:31:51;;;;;;;0.43;0.43;;;18.10;99.90;;;;;;5101882;28;20026;-83
2023/06/15 08:34:16;;;;;;;0.10;0.10;;;18.20;99.90;;;;;;5082591;28;20016;-87
2023/06/15 08:36:42;;;;;;;0.45;0.45;;;18.40;99.90;;;;;;5101102;28;20112;-79
2023/06/15 08:39:08;;;;;;;0.35;0.35;;;18.30;99.90;;;;;;5100833;28;20521;-81
2023/06/15 08:41:37;;;;;;;0.10;0.10;;;18.40;99.90;;;;;;5101281;28;20046;-89
2023/06/15 08:44:05;;;;;;;0.10;0.10;;;18.40;99.90;;;;;;5101224;28;20030;-87
2023/06/15 08:46:31;;;;;;;5.72;1.98;;;18.60;99.90;;;;;;5082927;28;20413;-89
2023/06/15 08:48:58;;;;;;;0.20;0.20;;;18.70;99.90;;;;;;5102045;28;20072;-78
2023/06/15 08:51:25;;;;;;;0.10;0.10;;;17.60;99.90;;;;;;5101262;28;21046;-76
2023/06/15 08:53:56;;;;;;;2.53;1.20;;;20.70;99.90;;;;;;5082173;28;20020;-78
2023/06/15 08:56:22;;;;;;;0.10;0.10;;;19.20;99.90;;;;;;5067116;28;20044;-76
2023/06/15 08:58:49;;;;;;;0.20;0.20;;;19.30;99.90;;;;;;5083058;28;20027;-78
2023/06/15 09:01:26;;;;;;;0.10;0.10;;;19.30;99.90;;;;;;5102667;28;20024;-81
2023/06/15 09:03:55;;;;;;;0.10;0.10;;;19.30;99.90;;;;;;5104058;28;20027;-78
2023/06/15 09:06:22;;;;;;;0.20;0.20;;;18.90;99.90;;;;;;5100924;28;20513;-78
2023/06/15 09:08:50;;;;;;;0.20;0.20;;;19.20;99.90;;;;;;5100529;28;20119;-79
2023/06/15 09:11:17;;;;;;;0.10;0.10;;;15.80;99.90;;;;;;5100266;28;20020;-77
2023/06/15 09:13:44;;;;;;;0.30;0.30;;;19.20;99.90;;;;;;5065542;28;20032;-76
2023/06/15 09:16:11;;;;;;;0.10;0.10;;;19.10;99.90;;;;;;5104135;28;20015;-78
2023/06/15 09:18:48;;;;;;;0.10;0.10;;;19.20;99.90;;;;;;5106910;28;20023;-79
2023/06/15 09:21:15;;;;;;;0.10;0.10;;;19.20;99.90;;;;;;5106262;28;20087;-78
2023/06/15 09:23:45;;;;;;;0.10;0.10;;;19.10;99.90;;;;;;5107783;28;20015;-80
2023/06/15 09:26:27;;;;;;;0.10;0.10;;;19.10;99.90;;;;;;5106416;28;20027;-81
2023/06/15 09:28:57;;;;;;;0.10;0.10;;;19.00;99.90;;;;;;5106765;28;20043;-84
2023/06/15 09:31:30;;;;;;;0.10;0.10;;;18.90;99.90;;;;;;5107129;28;20092;-83
2023/06/15 09:34:04;;;;;;;0.47;0.47;;;19.10;99.90;;;;;;5087862;28;20030;-77
2023/06/15 09:36:41;;;;;;;0.10;0.10;;;18.80;99.90;;;;;;5105622;28;20107;-83
2023/06/15 09:39:11;;;;;;;10.55;6.28;;;18.80;99.90;;;;;;5108508;28;20189;-81
2023/06/15 09:41:56;;;;;;;0.20;0.20;;;18.80;99.90;;;;;;5107487;28;20240;-77
2023/06/15 09:44:23;;;;;;;0.10;0.10;;;18.80;99.90;;;;;;5082802;28;20102;-81
2023/06/15 09:46:58;;;;;;;0.10;0.10;;;18.90;99.90;;;;;;5084907;28;20027;-81
2023/06/15 09:49:26;;;;;;;0.20;0.20;;;18.90;99.90;;;;;;5084378;28;20011;-76
2023/06/15 09:51:53;;;;;;;0.20;0.20;;;19.00;99.90;;;;;;5103031;28;20103;-80
2023/06/15 09:54:20;;;;;;;0.10;0.10;;;19.20;99.90;;;;;;5100749;28;20051;-85
2023/06/15 09:56:49;;;;;;;0.10;0.10;;;19.30;99.90;;;;;;5102269;28;20038;-83
2023/06/15 09:59:17;;;;;;;0.15;0.15;;;19.30;99.90;;;;;;5101498;28;20181;-84
2023/06/15 10:01:47;;;;;;;0.40;0.40;;;19.40;99.90;;;;;;5101658;28;20088;-85
2023/06/15 10:04:18;;;;;;;0.10;0.10;;;20.10;99.90;;;;;;5104131;28;20058;-77
2023/06/15 10:06:47;;;;;;;0.20;0.20;;;19.10;99.90;;;;;;5085290;28;20008;-80
2023/06/15 10:09:17;;;;;;;0.10;0.10;;;19.20;99.90;;;;;;5104171;28;20023;-85
2023/06/15 10:11:45;;;;;;;0.10;0.10;;;19.10;99.90;;;;;;5101606;28;20016;-81
2023/06/15 10:14:17;;;;;;;0.10;0.10;;;19.30;99.90;;;;;;5100740;28;20028;-81
2023/06/15 10:16:50;;;;;;;0.10;0.10;;;19.40;99.90;;;;;;5100312;28;20246;-78
2023/06/15 10:19:21;;;;;;;0.10;0.10;;;19.50;99.90;;;;;;5101530;28;20008;-86
2023/06/15 10:21:48;;;;;;;0.10;0.10;;;16.40;99.90;;;;;;5099633;28;20164;-81
2023/06/15 10:24:16;;;;;;;0.10;0.10;;;19.60;99.90;;;;;;5099027;28;20100;-86
2023/06/15 10:26:43;;;;;;;0.10;0.10;;;19.40;99.90;;;;;;5080735;28;20062;-78
2023/06/15 10:29:31;;;;;;;0.20;0.20;;;19.40;99.90;;;;;;5098960;28;20012;-77
2023/06/15 10:32:23;;;;;;;0.10;0.10;;;19.20;99.90;;;;;;5081457;28;20072;-78
2023/06/15 10:34:57;;;;;;;0.20;0.20;;;19.20;99.90;;;;;;4996959;28;20576;-87
2023/06/15 10:37:56;;;;;;;0.10;0.10;;;19.00;99.90;;;;;;5017626;28;20091;-78
2023/06/15 10:40:30;;;;;;;0.20;0.20;;;21.00;99.90;;;;;;5001323;28;20029;-75
2023/06/15 10:42:57;;;;;;;0.20;0.20;;;18.60;99.90;;;;;;5018321;28;20117;-77
2023/06/15 10:45:28;;;;;;;0.20;0.20;;;18.60;99.90;;;;;;5018628;28;20068;-82
2023/06/15 10:47:55;;;;;;;0.38;0.38;;;18.60;99.90;;;;;;5018548;28;20056;-81
2023/06/15 10:50:21;;;;;;;0.90;0.88;;;18.50;99.90;;;;;;5019190;28;20049;-84
2023/06/15 10:52:47;;;;;;;0.10;0.10;;;18.60;99.90;;;;;;5018075;28;20060;-83
2023/06/15 10:55:15;;;;;;;0.32;0.32;;;18.70;99.90;;;;;;5001622;28;20041;-76
2023/06/15 10:57:41;;;;;;;0.10;0.10;;;18.90;99.90;;;;;;4999312;28;20034;-76
2023/06/15 11:00:10;;;;;;;0.50;0.50;;;18.90;99.90;;;;;;5000008;28;20045;-83
2023/06/15 11:02:36;;;;;;;0.10;0.10;;;19.10;99.90;;;;;;5018142;28;20268;-89
2023/06/15 11:05:10;;;;;;;0.20;0.20;;;19.30;99.90;;;;;;5016179;28;20542;-87
2023/06/15 11:07:43;;;;;;;0.20;0.20;;;19.40;99.90;;;;;;5017905;28;20218;-84
2023/06/15 11:10:20;;;;;;;0.10;0.10;;;22.80;99.90;;;;;;5019100;28;20060;-78
2023/06/15 11:12:49;;;;;;;0.10;0.10;;;19.60;99.90;;;;;;5060541;28;20058;-77
2023/06/15 11:15:16;;;;;;;0.10;0.10;;;19.70;99.90;;;;;;5080955;28;20097;-88
2023/06/15 11:18:03;;;;;;;0.10;0.10;;;18.10;99.90;;;;;;5080403;28;20024;-76
2023/06/15 11:20:56;;;;;;;0.10;0.10;;;19.50;99.90;;;;;;5062445;28;20017;-85
2023/06/15 11:23:24;;;;;;;0.10;0.10;;;19.40;99.90;;;;;;4977627;28;20054;-88
2023/06/15 11:25:51;;;;;;;0.22;0.22;;;19.40;99.90;;;;;;4962179;28;20621;-84
2023/06/15 11:28:24;;;;;;;0.20;0.20;;;19.20;99.90;;;;;;4980115;28;20037;-84
2023/06/15 11:30:53;;;;;;;1.08;0.68;;;18.90;99.90;;;;;;4965109;28;20114;-89
2023/06/15 11:33:32;;;;;;;0.40;0.40;;;18.50;99.90;;;;;;4987109;28;20038;-79
2023/06/15 11:36:06;;;;;;;0.10;0.10;;;18.20;99.90;;;;;;4986085;28;20066;-89
2023/06/15 11:38:33;;;;;;;2.10;2.08;;;18.00;99.90;;;;;;4983636;28;20037;-91
2023/06/15 11:41:04;;;;;;;0.10;0.10;;;17.80;99.90;;;;;;4982603;28;20030;-76
2023/06/15 11:43:41;;;;;;;0.10;0.10;;;17.80;99.90;;;;;;4965645;28;20018;-82
2023/06/15 11:46:14;;;;;;;0.10;0.10;;;17.70;99.90;;;;;;4983215;28;20556;-82
2023/06/15 11:48:40;;;;;;;0.80;0.80;;;17.50;99.90;;;;;;4982390;28;20090;-75
2023/06/15 11:51:11;;;;;;;0.30;0.30;;;17.50;99.90;;;;;;4964008;28;20105;-79
2023/06/15 11:53:38;;;;;;;0.10;0.10;;;17.40;99.90;;;;;;4985638;28;20043;-79
2023/06/15 11:56:08;;;;;;;0.43;0.43;;;17.60;99.90;;;;;;5020556;28;20142;-90
2023/06/15 11:58:34;;;;;;;0.10;0.10;;;17.60;99.90;;;;;;5021685;28;20083;-80
2023/06/15 12:01:01;;;;;;;0.10;0.10;;;17.60;99.90;;;;;;5088940;28;20027;-83
2023/06/15 12:03:27;;;;;;;0.20;0.20;;;17.60;99.90;;;;;;5108376;28;20031;-83
2023/06/15 12:05:57;;;;;;;0.85;0.85;;;17.50;99.90;;;;;;5085985;28;20019;-85
2023/06/15 12:08:26;;;;;;;0.10;0.10;;;17.50;99.90;;;;;;5104772;28;20506;-88
2023/06/15 12:10:53;;;;;;;0.28;0.28;;;17.50;99.90;;;;;;5082369;28;20390;-86
2023/06/15 12:13:19;;;;;;;0.10;0.10;;;17.50;99.90;;;;;;5084447;28;20031;-85
2023/06/15 12:15:47;;;;;;;0.17;0.17;;;17.40;99.90;;;;;;5085092;28;20027;-80
2023/06/15 12:18:15;;;;;;;0.20;0.20;;;17.50;99.90;;;;;;5082770;28;20039;-75
2023/06/15 12:20:41;;;;;;;0.75;0.75;;;17.40;99.90;;;;;;5102134;28;20489;-75
2023/06/15 12:23:07;;;;;;;0.20;0.20;;;17.40;99.90;;;;;;5105574;28;20313;-78
2023/06/15 12:25:47;;;;;;;0.10;0.10;;;17.40;99.90;;;;;;5107632;28;20096;-75
2023/06/15 12:28:21;;;;;;;0.38;0.38;;;17.30;99.90;;;;;;5103972;28;20221;-78
2023/06/15 12:30:48;;;;;;;0.10;0.10;;;17.20;99.90;;;;;;5103455;28;20302;-81
2023/06/15 12:33:31;;;;;;;0.10;0.10;;;17.20;99.90;;;;;;5085782;28;20031;-73
2023/06/15 12:36:02;;;;;;;0.10;0.10;;;17.30;99.90;;;;;;5100396;28;20019;-82
2023/06/15 12:38:29;;;;;;;0.20;0.20;;;17.40;99.90;;;;;;5081494;28;20076;-75
2023/06/15 12:40:57;;;;;;;0.10;0.10;;;17.40;99.90;;;;;;5100460;28;20011;-77
2023/06/15 12:43:26;;;;;;;0.20;0.20;;;17.40;99.90;;;;;;5100317;28;20020;-78
2023/06/15 12:45:54;;;;;;;0.30;0.30;;;17.50;99.90;;;;;;5103206;28;20022;-74
2023/06/15 12:48:23;;;;;;;0.20;0.20;;;17.50;99.90;;;;;;5090410;28;20237;-90
2023/06/15 12:50:52;;;;;;;0.30;0.30;;;17.50;99.90;;;;;;5114610;28;20103;-79